This is the latest recevied weather packets stored in our database for station/object KN4MGS. If no packets are shown the sender has not sent any weather packets the latest 1 day(s).
| Time | Temp. | Humidity | Pressure | Rain* | Wind** | Luminosity | Snow |
|---|---|---|---|---|---|---|---|
| 1778025767 | 23.89° C | 48% | 1017.1 hPa | 0 mm | - | 7 W/m² | - |
| 1778025464 | 23.89° C | 48% | 1016.9 hPa | 0 mm | - | 10 W/m² | - |
| 1778024858 | 24.44° C | 46% | 1017 hPa | 0 mm | - | 19 W/m² | - |
| 1778024556 | 25° C | 46% | 1016.9 hPa | 0 mm | - | 24 W/m² | - |
| 1778023647 | 25.56° C | 44% | 1016.8 hPa | 0 mm | - | 39 W/m² | - |
| 1778022438 | 25.56° C | 44% | 1017.1 hPa | 0 mm | - | 92 W/m² | - |
| 1778021223 | 26.11° C | 44% | 1016.9 hPa | 0 mm | - | 180 W/m² | - |
| 1778020314 | 26.67° C | 42% | 1016.8 hPa | 0 mm | - | 243 W/m² | - |
| 1778019404 | 26.67° C | 43% | 1016.8 hPa | 0 mm | - | 200 W/m² | - |
| 1778018798 | 26.67° C | 42% | 1017.1 hPa | 0 mm | - | 255 W/m² | - |
| 1778018193 | 26.67° C | 42% | 1017.1 hPa | 0 mm | - | 312 W/m² | - |
| 1778017891 | 26.11° C | 43% | 1017.2 hPa | 0 mm | - | 321 W/m² | - |
| 1778015164 | 27.22° C | 43% | 1017.2 hPa | 0 mm | - | 191 W/m² | - |
| 1778014256 | 27.22° C | 44% | 1017.5 hPa | 0 mm | - | 556 W/m² | - |
| 1778013953 | 27.22° C | 42% | 1017.5 hPa | 0 mm | - | 589 W/m² | - |
| 1778013044 | 26.67° C | 42% | 1017.7 hPa | 0 mm | - | 349 W/m² | - |
| 1778012133 | 26.67° C | 42% | 1018 hPa | 0 mm | - | 403 W/m² | - |
| 1778010921 | 26.67° C | 42% | 1017.9 hPa | 0 mm | - | 229 W/m² | - |
| 1778007587 | 26.11° C | 45% | 1018.9 hPa | 0 mm | - | 757 W/m² | - |
| 1778006374 | 26.67° C | 43% | 1019.1 hPa | 0 mm | - | 740 W/m² | - |
| 1778005768 | 26.67° C | 44% | 1019.1 hPa | 0 mm | - | 750 W/m² | - |
| 1778005465 | 27.22° C | 44% | 1019.2 hPa | 0 mm | - | 730 W/m² | - |
| 1778005161 | 27.22° C | 44% | 1019.4 hPa | 0 mm | - | 746 W/m² | - |
* Rain latest hour (hover to see other rain measurements)
** Current wind speed in m/s (hover to see current wind gust speed)